Time;durP1;ratioP1;P1;durP2;ratioP2;P2;SDS_P1;SDS_P2;PMS_P1;PMS_P2;Temp;Humidity;BMP_temperature;BMP_pressure;BME280_temperature;BME280_humidity;BME280_pressure;Samples;Min_cycle;Max_cycle;Signal;HPM_P1;HPM_P2
2022/08/12 00:44:14;;;;;;;7.43;4.38;;;;;;;18.17;58.04;101913.38;5053931;28;20215;-75
2022/08/12 00:46:48;;;;;;;7.65;4.30;;;;;;;18.00;59.94;101912.91;5053727;28;20025;-74
2022/08/12 00:49:15;;;;;;;8.57;4.00;;;;;;;17.95;59.43;101912.41;5053489;28;20487;-75
2022/08/12 00:54:26;;;;;;;8.90;4.60;;;;;;;17.86;59.57;101912.28;5053712;28;20067;-75
2022/08/12 00:56:54;;;;;;;7.55;4.22;;;;;;;17.78;61.58;101915.47;5053648;28;20037;-75
2022/08/12 00:59:19;;;;;;;6.38;4.10;;;;;;;17.66;61.77;101905.94;5053583;28;20057;-75
2022/08/12 01:01:46;;;;;;;7.53;4.40;;;;;;;17.77;59.82;101904.19;5053327;28;20053;-75
2022/08/12 01:12:37;;;;;;;7.07;4.55;;;;;;;17.49;61.96;101901.97;5053160;28;20044;-74
2022/08/12 01:15:03;;;;;;;8.85;4.38;;;;;;;17.58;60.36;101921.34;5052995;28;20021;-75
2022/08/12 01:17:29;;;;;;;7.32;4.45;;;;;;;17.51;62.04;101918.38;5053236;28;20025;-74
2022/08/12 01:19:59;;;;;;;8.52;4.40;;;;;;;17.39;63.16;101919.28;5052760;28;20029;-75
2022/08/12 01:22:40;;;;;;;8.50;4.95;;;;;;;17.39;63.60;101912.28;5052950;28;20029;-74
2022/08/12 01:25:05;;;;;;;8.18;4.55;;;;;;;17.29;63.72;101918.28;5052924;28;20078;-75
2022/08/12 01:27:33;;;;;;;8.27;4.65;;;;;;;17.30;63.82;101917.34;5053076;28;20028;-75
2022/08/12 01:30:01;;;;;;;8.95;4.63;;;;;;;17.23;64.55;101903.94;5052561;28;20029;-75
2022/08/12 01:32:28;;;;;;;7.85;4.40;;;;;;;17.17;64.48;101915.66;5052633;28;20041;-75
2022/08/12 01:34:59;;;;;;;8.93;4.70;;;;;;;17.16;65.06;101914.00;5052716;28;20029;-75
2022/08/12 01:37:27;;;;;;;7.72;4.63;;;;;;;17.15;64.42;101925.38;5052592;28;20029;-74
2022/08/12 01:39:56;;;;;;;10.20;4.90;;;;;;;17.08;65.77;101915.50;5052572;28;20029;-74
2022/08/12 01:42:21;;;;;;;6.85;4.47;;;;;;;17.09;65.14;101912.75;5052529;28;20024;-75
2022/08/12 01:44:54;;;;;;;9.30;4.45;;;;;;;17.08;64.28;101908.50;5052653;28;20025;-75
2022/08/12 01:47:31;;;;;;;7.40;4.95;;;;;;;17.04;65.58;101914.06;5052671;28;20063;-75
2022/08/12 01:50:39;;;;;;;7.18;4.57;;;;;;;17.03;64.57;101913.22;5052555;28;20051;-75
2022/08/12 01:53:10;;;;;;;7.95;4.57;;;;;;;16.99;65.09;101910.94;5052221;28;20032;-75
2022/08/12 01:55:40;;;;;;;9.90;5.43;;;;;;;16.92;65.99;101911.41;5052499;28;20029;-75
2022/08/12 01:58:20;;;;;;;8.27;4.57;;;;;;;16.89;66.59;101909.00;5052599;28;20029;-75
2022/08/12 02:00:57;;;;;;;8.20;4.83;;;;;;;16.82;66.57;101896.53;5052444;28;20064;-74
2022/08/12 02:12:37;;;;;;;9.88;5.45;;;;;;;16.72;66.85;101901.56;5052611;28;20040;-74
2022/08/12 02:15:36;;;;;;;10.93;6.03;;;;;;;16.72;66.38;101906.78;4990924;28;20533;-74
2022/08/12 02:18:44;;;;;;;9.57;5.50;;;;;;;16.63;67.43;101900.44;4990708;28;20061;-75
2022/08/12 02:21:31;;;;;;;12.20;5.65;;;;;;;16.59;67.84;101903.34;4990988;28;20125;-74
2022/08/12 02:23:58;;;;;;;10.93;5.82;;;;;;;16.64;67.73;101899.47;4990630;28;20130;-74
2022/08/12 02:26:26;;;;;;;9.30;5.55;;;;;;;16.59;67.29;101888.53;4990823;28;20042;-74
2022/08/12 02:28:52;;;;;;;10.23;5.60;;;;;;;16.56;68.04;101893.13;4991759;28;20060;-75
2022/08/12 02:31:17;;;;;;;8.20;5.70;;;;;;;16.57;68.67;101894.81;4994702;28;20509;-74
2022/08/12 02:33:46;;;;;;;10.32;5.40;;;;;;;16.53;68.23;101895.97;4994502;28;20051;-75
2022/08/12 02:36:14;;;;;;;10.02;6.20;;;;;;;16.38;68.80;101877.03;4994649;28;20129;-75
2022/08/12 02:38:41;;;;;;;10.73;5.78;;;;;;;16.44;68.69;101902.66;4994454;28;20069;-74
2022/08/12 02:41:10;;;;;;;10.32;6.32;;;;;;;16.36;68.27;101884.13;4994507;28;20053;-75
2022/08/12 02:43:50;;;;;;;9.15;6.00;;;;;;;16.42;69.26;101894.13;4994320;28;20049;-75
2022/08/12 02:46:22;;;;;;;9.75;6.03;;;;;;;16.42;68.67;101894.13;4994449;28;20498;-74
2022/08/12 02:48:56;;;;;;;10.88;5.78;;;;;;;16.28;70.17;101889.03;4994530;28;20371;-75
2022/08/12 02:51:25;;;;;;;9.52;5.70;;;;;;;16.06;70.74;101872.31;5014429;28;20045;-75
2022/08/12 02:53:50;;;;;;;8.55;6.20;;;;;;;16.18;69.82;101875.81;5055643;28;20021;-74
2022/08/12 02:56:17;;;;;;;9.57;6.80;;;;;;;16.28;69.81;101886.44;5055845;28;20625;-75
2022/08/12 02:58:45;;;;;;;8.75;6.13;;;;;;;16.31;69.45;101889.66;5053997;28;20041;-75
2022/08/12 03:01:12;;;;;;;12.98;7.15;;;;;;;16.40;69.61;101887.34;5055677;28;20542;-75
2022/08/12 03:03:39;;;;;;;10.25;6.53;;;;;;;16.42;69.71;101881.09;5055494;28;20021;-75
2022/08/12 03:06:13;;;;;;;9.15;6.22;;;;;;;16.30;69.97;101872.34;5055569;28;20036;-74
2022/08/12 03:08:42;;;;;;;11.25;6.32;;;;;;;16.31;70.12;101875.78;5055084;28;20029;-75
2022/08/12 03:11:22;;;;;;;10.30;6.40;;;;;;;16.34;70.17;101881.63;5055397;28;20025;-75
2022/08/12 03:13:54;;;;;;;10.77;6.80;;;;;;;16.20;70.68;101873.94;5055394;28;20021;-75
2022/08/12 03:16:20;;;;;;;8.80;6.40;;;;;;;16.08;71.66;101877.41;5055493;28;20049;-75
2022/08/12 03:18:47;;;;;;;14.40;6.80;;;;;;;15.98;71.28;101865.94;5055223;28;20025;-75
2022/08/12 03:21:15;;;;;;;10.82;6.55;;;;;;;16.14;71.65;101887.41;5055073;28;20032;-74
2022/08/12 03:23:44;;;;;;;11.10;6.80;;;;;;;16.04;71.14;101871.56;5054791;28;20112;-75
2022/08/12 03:26:10;;;;;;;9.98;6.20;;;;;;;16.14;71.79;101890.00;5054975;28;20478;-74
2022/08/12 03:28:52;;;;;;;11.93;6.45;;;;;;;16.00;72.61;101883.13;5055306;28;20425;-74
2022/08/12 03:31:31;;;;;;;10.48;6.63;;;;;;;15.98;72.56;101886.78;5055261;28;20027;-74
2022/08/12 03:34:08;;;;;;;12.13;6.78;;;;;;;15.89;73.30;101877.84;5054848;28;20099;-74
2022/08/12 03:36:35;;;;;;;9.07;6.72;;;;;;;15.97;73.10;101877.31;5055114;28;20063;-75
2022/08/12 03:41:53;;;;;;;11.00;7.07;;;;;;;15.97;72.19;101872.09;5053723;28;20033;-75
2022/08/12 04:01:19;;;;;;;9.85;7.22;;;;;;;15.88;73.90;101878.78;5055021;28;20047;-74
2022/08/12 04:03:51;;;;;;;12.15;7.22;;;;;;;15.86;73.64;101874.63;5054417;28;20017;-75
2022/08/12 04:06:17;;;;;;;9.73;5.57;;;;;;;16.25;77.90;101889.25;5054323;28;20163;-76
2022/08/12 04:08:45;;;;;;;8.45;6.03;;;;;;;16.53;76.50;101880.34;5053950;28;20049;-78
2022/08/12 04:14:07;;;;;;;11.40;6.50;;;;;;;16.64;73.47;101877.78;4992739;28;20053;-79
2022/08/12 04:16:33;;;;;;;8.75;6.10;;;;;;;16.65;74.32;101869.00;4992735;28;20077;-77
2022/08/12 04:19:00;;;;;;;10.07;6.60;;;;;;;16.57;74.10;101889.59;4992512;28;20061;-78
2022/08/12 04:21:25;;;;;;;9.90;7.22;;;;;;;16.53;73.93;101888.97;4992787;28;20045;-77
2022/08/12 04:23:52;;;;;;;10.05;6.63;;;;;;;16.47;73.36;101872.94;4992513;28;20125;-78
2022/08/12 04:26:18;;;;;;;12.32;6.55;;;;;;;16.47;74.03;101875.53;4992224;28;20098;-77
2022/08/12 04:28:44;;;;;;;12.48;6.90;;;;;;;16.37;74.63;101885.78;4992663;28;20038;-78
2022/08/12 04:31:11;;;;;;;12.50;7.38;;;;;;;16.25;74.26;101876.22;4992354;28;20062;-78
2022/08/12 04:33:39;;;;;;;10.70;7.47;;;;;;;16.47;74.06;101885.97;4979093;28;20050;-79
2022/08/12 04:36:05;;;;;;;10.75;7.30;;;;;;;16.35;74.14;101890.28;4972875;28;20467;-77
2022/08/12 04:38:32;;;;;;;12.32;7.72;;;;;;;16.29;74.41;101890.69;4972752;28;20114;-77
2022/08/12 04:40:58;;;;;;;13.38;6.97;;;;;;;16.16;75.00;101863.84;4972705;28;20035;-78
2022/08/12 04:43:24;;;;;;;8.85;6.78;;;;;;;16.37;75.10;101875.34;4972829;28;20035;-78
2022/08/12 04:45:50;;;;;;;11.20;6.78;;;;;;;16.33;74.78;101882.56;4972891;28;20034;-78
2022/08/12 04:48:15;;;;;;;9.88;6.82;;;;;;;16.42;74.80;101886.31;4972650;28;20030;-78
2022/08/12 04:50:43;;;;;;;13.85;7.38;;;;;;;16.42;74.77;101885.44;4994884;28;20038;-79
2022/08/12 04:53:09;;;;;;;11.18;7.32;;;;;;;16.35;74.67;101888.50;5033287;28;20029;-79
2022/08/12 04:55:37;;;;;;;10.90;6.82;;;;;;;16.45;74.76;101873.06;5033283;28;20377;-78
2022/08/12 04:58:02;;;;;;;10.60;7.45;;;;;;;16.53;73.77;101885.53;5033696;28;20025;-79
2022/08/12 05:00:28;;;;;;;11.75;6.93;;;;;;;16.52;73.87;101876.91;5033465;28;20385;-75
2022/08/12 05:02:53;;;;;;;9.35;6.30;;;;;;;16.78;73.72;101885.47;5032997;28;20092;-78
2022/08/12 05:05:21;;;;;;;14.45;7.60;;;;;;;16.68;74.06;101866.22;5034364;28;20064;-76
2022/08/12 05:07:48;;;;;;;15.30;8.23;;;;;;;16.77;73.01;101883.81;5033477;28;20037;-75
2022/08/12 05:10:14;;;;;;;11.00;7.78;;;;;;;16.89;73.37;101882.91;5033074;28;20029;-73
2022/08/12 05:12:46;;;;;;;14.10;7.90;;;;;;;16.89;73.23;101874.25;5032915;28;20033;-77
2022/08/12 05:15:14;;;;;;;9.77;6.68;;;;;;;17.10;72.53;101864.84;5033108;28;20029;-77
2022/08/12 05:17:41;;;;;;;13.50;8.32;;;;;;;17.22;71.86;101886.63;5031116;28;20033;-76
2022/08/12 05:20:11;;;;;;;14.30;8.30;;;;;;;17.28;71.58;101878.31;5033021;28;20030;-77
2022/08/12 05:22:37;;;;;;;21.75;9.20;;;;;;;17.43;70.74;101879.78;5033158;28;20048;-78
2022/08/12 05:25:05;;;;;;;13.32;8.77;;;;;;;17.52;70.26;101878.25;5032821;28;20049;-74
2022/08/12 05:27:31;;;;;;;12.38;9.32;;;;;;;17.39;71.10;101877.50;5033049;28;20021;-73
2022/08/12 05:29:56;;;;;;;13.07;8.63;;;;;;;17.45;70.82;101877.06;5033179;28;20105;-73
2022/08/12 05:32:24;;;;;;;15.00;9.55;;;;;;;17.57;69.54;101878.72;5036098;28;20493;-73
2022/08/12 05:34:52;;;;;;;14.80;9.63;;;;;;;17.59;70.08;101883.84;5052987;28;20052;-73
2022/08/12 05:37:17;;;;;;;14.45;9.48;;;;;;;17.65;69.97;101888.59;5052845;28;20021;-74
2022/08/12 05:39:42;;;;;;;13.70;9.20;;;;;;;17.70;69.60;101891.75;5052575;28;20078;-74
2022/08/12 05:42:08;;;;;;;15.57;9.43;;;;;;;17.69;70.29;101895.25;5052366;28;20043;-74
2022/08/12 05:44:34;;;;;;;13.60;9.48;;;;;;;17.73;70.83;101894.94;5052578;28;20469;-74
2022/08/12 05:46:59;;;;;;;14.18;9.35;;;;;;;18.25;68.56;101892.69;5052561;28;20031;-73
2022/08/12 05:49:25;;;;;;;12.38;9.60;;;;;;;19.73;64.29;101894.53;5052543;28;20044;-74
2022/08/12 05:51:50;;;;;;;13.15;9.27;;;;;;;21.21;57.90;101880.63;5052675;28;20061;-74
2022/08/12 05:54:17;;;;;;;13.20;9.50;;;;;;;22.49;54.13;101886.97;5052497;28;20477;-76
2022/08/12 05:56:44;;;;;;;13.80;9.02;;;;;;;23.39;53.08;101888.59;5034402;28;20112;-74
2022/08/12 05:59:12;;;;;;;13.93;8.57;;;;;;;24.45;48.10;101898.91;5052508;28;20117;-76
2022/08/12 06:01:40;;;;;;;16.83;9.30;;;;;;;25.22;45.72;101873.06;5052547;28;20170;-74
2022/08/12 06:04:07;;;;;;;14.02;9.52;;;;;;;25.77;44.59;101872.31;5051842;28;20049;-74
2022/08/12 06:06:41;;;;;;;13.23;8.45;;;;;;;26.27;43.40;101869.25;5052245;28;20477;-74
2022/08/12 06:09:10;;;;;;;16.08;9.30;;;;;;;26.92;41.62;101897.97;5052335;28;20121;-74
2022/08/12 06:11:36;;;;;;;16.33;9.27;;;;;;;27.37;40.67;101886.50;5034260;28;20032;-75
2022/08/12 06:14:02;;;;;;;13.88;9.23;;;;;;;27.64;40.59;101897.50;5052367;28;20430;-74
2022/08/12 06:16:27;;;;;;;13.57;9.40;;;;;;;27.51;39.55;101886.69;5052334;28;20108;-73
2022/08/12 06:18:53;;;;;;;13.43;9.20;;;;;;;27.96;39.07;101894.47;5052407;28;20021;-74
2022/08/12 06:21:20;;;;;;;14.00;9.13;;;;;;;28.88;37.28;101885.03;5052308;28;20017;-74
2022/08/12 06:23:47;;;;;;;13.13;9.27;;;;;;;29.34;36.31;101898.72;5052161;28;20439;-75
2022/08/12 06:26:15;;;;;;;13.63;9.77;;;;;;;29.29;36.77;101898.47;5052141;28;20073;-75
2022/08/12 06:28:49;;;;;;;20.38;9.73;;;;;;;29.43;36.51;101892.25;5052148;28;20094;-74
2022/08/12 06:31:17;;;;;;;15.98;9.52;;;;;;;29.92;35.09;101899.28;5052364;28;20025;-76
2022/08/12 06:33:43;;;;;;;17.27;10.27;;;;;;;29.94;34.31;101891.91;5052073;28;20041;-75
2022/08/12 06:36:14;;;;;;;15.00;9.80;;;;;;;29.60;35.43;101896.28;5052178;28;20499;-74
2022/08/12 06:38:40;;;;;;;14.85;9.82;;;;;;;29.48;35.55;101883.66;5051944;28;20112;-74
2022/08/12 06:43:52;;;;;;;18.17;9.75;;;;;;;30.19;34.69;101881.59;5052148;28;20178;-76
2022/08/12 06:46:18;;;;;;;17.58;9.52;;;;;;;30.71;33.93;101893.41;5051976;28;20017;-74
2022/08/12 06:48:43;;;;;;;16.48;9.60;;;;;;;31.29;32.05;101889.09;5051978;28;20024;-74
2022/08/12 06:51:09;;;;;;;13.90;10.13;;;;;;;31.02;32.91;101861.59;5051890;28;20028;-74
2022/08/12 06:53:35;;;;;;;14.43;9.65;;;;;;;31.76;31.61;101870.28;5051935;28;20454;-74
2022/08/12 06:56:01;;;;;;;16.95;10.32;;;;;;;31.31;31.47;101881.72;5051755;28;20115;-74
2022/08/12 06:58:28;;;;;;;14.25;10.40;;;;;;;31.22;32.01;101885.63;5051916;28;20104;-77
2022/08/12 07:00:56;;;;;;;13.15;10.15;;;;;;;30.99;31.73;101875.38;5052195;28;20036;-74
2022/08/12 07:03:27;;;;;;;13.27;9.70;;;;;;;30.90;32.64;101892.59;5052071;28;20027;-75
2022/08/12 07:05:53;;;;;;;;;;;;;;;31.11;34.43;101884.38;5052489;28;20115;-74
2022/08/12 07:08:18;;;;;;;17.90;9.73;;;;;;;30.83;32.20;101884.59;5051680;28;20387;-74
2022/08/12 07:10:57;;;;;;;12.88;9.00;;;;;;;31.25;32.54;101879.03;5051863;28;20029;-74
2022/08/12 07:13:27;;;;;;;13.55;8.85;;;;;;;32.04;30.47;101859.28;5051698;28;20465;-74
2022/08/12 07:15:54;;;;;;;12.82;10.18;;;;;;;32.10;29.17;101853.91;5053974;28;20070;-75
2022/08/12 07:18:21;;;;;;;15.38;9.40;;;;;;;31.45;30.74;101877.16;5055258;28;20029;-73
2022/08/12 07:20:47;;;;;;;15.32;10.05;;;;;;;31.75;30.59;101873.97;5055167;28;20396;-73
2022/08/12 07:23:15;;;;;;;12.05;9.25;;;;;;;31.50;30.76;101856.00;5055230;28;20031;-73
2022/08/12 07:25:41;;;;;;;16.13;9.50;;;;;;;31.27;30.50;101871.66;5055218;28;20384;-74
2022/08/12 07:28:35;;;;;;;13.50;10.20;;;;;;;29.98;34.59;101877.16;5055007;28;20031;-73
2022/08/12 07:31:07;;;;;;;17.10;9.70;;;;;;;28.18;35.70;101891.88;5052974;28;20037;-74
2022/08/12 07:33:37;;;;;;;14.30;10.32;;;;;;;26.97;37.80;101881.53;5055109;28;20063;-73
2022/08/12 07:36:05;;;;;;;19.17;10.02;;;;;;;26.29;40.69;101902.50;5055073;28;20079;-76
2022/08/12 07:38:37;;;;;;;18.92;10.07;;;;;;;25.81;40.54;101897.41;5054794;28;20045;-74
2022/08/12 07:41:25;;;;;;;15.18;9.80;;;;;;;25.44;41.53;101907.56;5054785;28;20447;-75
2022/08/12 07:43:55;;;;;;;14.93;10.32;;;;;;;25.12;42.33;101903.13;5054512;28;20032;-75
2022/08/12 07:46:24;;;;;;;15.95;10.15;;;;;;;24.98;43.75;101913.53;5054893;28;20079;-72
2022/08/12 07:48:55;;;;;;;16.73;9.88;;;;;;;24.88;42.93;101906.56;5054833;28;20048;-72
2022/08/12 07:51:21;;;;;;;;;;;;;;;24.82;43.25;101904.56;5069696;28;20100;-73
2022/08/12 07:53:47;;;;;;;13.35;8.82;;;;;;;24.77;43.85;101898.94;5074458;28;19958;-75
2022/08/12 07:56:14;;;;;;;15.55;9.10;;;;;;;24.82;43.98;101899.28;5073251;28;20083;-76
2022/08/12 07:58:40;;;;;;;15.35;8.45;;;;;;;24.77;44.45;101898.13;5074559;28;20025;-72
2022/08/12 08:01:11;;;;;;;14.95;7.90;;;;;;;24.93;43.89;101910.53;5074834;28;20042;-74
2022/08/12 08:03:37;;;;;;;12.52;8.48;;;;;;;24.86;44.11;101897.13;5074457;28;20020;-76
2022/08/12 08:06:14;;;;;;;12.77;8.10;;;;;;;24.94;43.16;101899.78;5074423;28;20098;-74
2022/08/12 08:08:40;;;;;;;12.38;9.13;;;;;;;24.82;43.16;101894.00;5074376;28;20415;-74
2022/08/12 08:13:50;;;;;;;13.50;7.80;;;;;;;25.00;42.97;101916.81;5074473;28;20411;-73
2022/08/12 08:16:15;;;;;;;10.23;6.78;;;;;;;24.91;41.96;101883.44;5074192;28;20028;-74
2022/08/12 08:18:41;;;;;;;11.95;7.60;;;;;;;25.11;42.77;101911.22;5073981;28;20435;-75
2022/08/12 08:21:09;;;;;;;13.93;9.07;;;;;;;25.08;41.26;101916.84;5074078;28;20033;-74
2022/08/12 08:26:21;;;;;;;12.50;8.13;;;;;;;24.99;41.82;101909.88;5073878;28;20044;-75
2022/08/12 08:28:47;;;;;;;14.30;7.55;;;;;;;24.95;41.79;101911.19;5073661;28;20031;-75
2022/08/12 08:31:13;;;;;;;14.88;8.07;;;;;;;25.16;42.10;101920.28;5074053;28;20103;-75
2022/08/12 08:33:40;;;;;;;14.18;8.80;;;;;;;25.09;41.51;101900.84;5073782;28;20123;-75
2022/08/12 08:36:06;;;;;;;15.15;8.65;;;;;;;25.15;43.56;101905.44;5073568;28;20035;-74
2022/08/12 08:38:31;;;;;;;14.60;8.25;;;;;;;25.32;42.63;101929.22;5073718;28;20036;-76
2022/08/12 08:43:42;;;;;;;12.85;6.50;;;;;;;25.32;41.77;101882.47;5073818;28;20133;-74
2022/08/12 08:46:07;;;;;;;10.77;7.00;;;;;;;25.60;42.63;101908.53;5073674;28;20060;-75
2022/08/12 08:48:33;;;;;;;15.73;7.10;;;;;;;25.74;42.73;101906.03;5073229;28;20107;-74
2022/08/12 08:50:58;;;;;;;10.05;6.47;;;;;;;25.74;42.12;101910.50;5073480;28;20050;-76
2022/08/12 08:53:24;;;;;;;10.65;6.57;;;;;;;25.69;42.02;101886.34;5073721;28;20032;-76
2022/08/12 08:55:52;;;;;;;13.02;6.25;;;;;;;25.95;40.47;101912.56;5073584;28;20020;-75
2022/08/12 08:58:20;;;;;;;12.95;6.60;;;;;;;25.93;38.65;101915.41;5073242;28;20395;-75
2022/08/12 09:00:48;;;;;;;14.75;6.43;;;;;;;26.00;38.26;101910.25;5073712;28;20017;-76
2022/08/12 09:03:14;;;;;;;21.35;6.53;;;;;;;25.99;39.12;101909.44;5073323;28;20025;-74
2022/08/12 09:05:39;;;;;;;11.13;6.20;;;;;;;26.05;38.58;101907.91;5073158;28;20368;-75
2022/08/12 09:08:05;;;;;;;11.98;5.53;;;;;;;26.02;38.14;101901.13;5073174;28;20024;-76
2022/08/12 09:10:32;;;;;;;11.65;5.45;;;;;;;26.27;38.13;101906.34;5073152;28;20036;-77
2022/08/12 09:15:43;;;;;;;14.00;6.03;;;;;;;26.35;37.33;101910.75;5073163;28;20051;-73
2022/08/12 09:18:10;;;;;;;9.98;5.85;;;;;;;26.43;38.17;101911.56;5072745;28;20036;-76
2022/08/12 09:20:38;;;;;;;13.13;5.22;;;;;;;26.49;37.76;101902.91;5072947;28;20055;-76
2022/08/12 09:23:06;;;;;;;9.00;5.20;;;;;;;26.52;36.42;101909.69;5073065;28;20021;-75
2022/08/12 09:25:32;;;;;;;15.13;5.60;;;;;;;26.56;35.99;101906.53;5073057;28;20028;-76
2022/08/12 09:27:58;;;;;;;12.52;6.25;;;;;;;26.53;37.28;101890.97;5073036;28;20020;-76
2022/08/12 09:30:24;;;;;;;13.32;6.50;;;;;;;26.66;37.75;101894.88;5072616;28;20028;-73
2022/08/12 09:32:51;;;;;;;12.57;6.30;;;;;;;26.54;37.02;101879.34;5072546;28;20115;-75
2022/08/12 09:35:23;;;;;;;10.25;5.90;;;;;;;26.77;38.22;101897.94;5072816;28;20487;-77
2022/08/12 09:37:52;;;;;;;13.55;5.97;;;;;;;26.91;38.13;101901.63;5072419;28;20025;-75
2022/08/12 09:40:19;;;;;;;11.23;6.18;;;;;;;26.88;37.69;101891.38;5072088;28;20055;-77
2022/08/12 09:45:31;;;;;;;11.77;5.50;;;;;;;27.06;37.61;101880.50;5072636;28;20571;-74
2022/08/12 09:48:02;;;;;;;13.02;5.90;;;;;;;27.20;36.09;101894.78;5072746;28;20128;-75
2022/08/12 09:50:28;;;;;;;11.27;5.40;;;;;;;27.12;36.08;101879.75;5071371;28;20071;-76
2022/08/12 09:53:08;;;;;;;10.30;5.10;;;;;;;27.16;36.92;101875.78;5072702;28;20036;-76
2022/08/12 09:55:34;;;;;;;9.60;4.83;;;;;;;27.18;34.49;101872.94;5071815;28;20019;-76
2022/08/12 09:58:03;;;;;;;10.25;5.35;;;;;;;27.21;35.20;101867.25;5072455;28;20016;-75
2022/08/12 10:00:33;;;;;;;16.55;5.43;;;;;;;27.32;35.00;101878.25;5072322;28;20097;-74
2022/08/12 10:03:05;;;;;;;13.75;5.32;;;;;;;27.42;34.47;101875.31;5072622;28;20070;-74
2022/08/12 10:05:32;;;;;;;9.50;4.40;;;;;;;27.56;35.13;101868.41;5072314;28;20033;-77
2022/08/12 10:07:59;;;;;;;6.97;4.40;;;;;;;27.64;34.74;101857.69;5054647;28;20020;-75
2022/08/12 10:10:26;;;;;;;10.20;4.18;;;;;;;27.89;32.95;101866.19;5072989;28;20028;-74
2022/08/12 10:15:45;;;;;;;8.00;4.32;;;;;;;28.01;31.94;101865.53;5072351;28;20043;-76
2022/08/12 10:18:13;;;;;;;6.80;4.10;;;;;;;28.08;33.32;101864.78;5072554;28;20016;-75
2022/08/12 10:20:39;;;;;;;9.73;4.07;;;;;;;28.21;32.25;101871.06;5072411;28;20032;-76
2022/08/12 10:23:05;;;;;;;7.18;4.40;;;;;;;28.10;31.51;101839.69;5072400;28;20028;-76
2022/08/12 10:30:58;;;;;;;9.60;4.60;;;;;;;28.37;33.00;101843.47;5072291;28;20437;-73
2022/08/12 10:33:24;;;;;;;8.10;4.03;;;;;;;28.29;30.93;101846.25;5072116;28;20044;-74
2022/08/12 10:35:51;;;;;;;9.98;5.03;;;;;;;28.38;32.31;101854.94;5072248;28;20028;-74
2022/08/12 10:38:16;;;;;;;8.88;4.35;;;;;;;28.33;30.91;101820.16;5072068;28;20020;-73
2022/08/12 10:43:41;;;;;;;10.07;5.13;;;;;;;28.49;30.59;101827.84;5072736;28;20052;-74
2022/08/12 10:46:16;;;;;;;8.95;4.70;;;;;;;28.49;30.84;101818.03;5052988;28;20041;-75
2022/08/12 10:48:47;;;;;;;7.38;4.53;;;;;;;28.75;30.60;101833.41;5071944;28;20082;-75
2022/08/12 10:51:17;;;;;;;6.93;4.68;;;;;;;28.77;30.31;101830.56;5075102;28;20066;-75
2022/08/12 10:53:46;;;;;;;17.60;4.18;;;;;;;28.69;30.32;101814.72;5075901;28;20024;-75
2022/08/12 10:56:13;;;;;;;8.68;4.10;;;;;;;28.81;29.61;101830.00;5075588;28;20024;-77
2022/08/12 10:58:38;;;;;;;8.40;4.07;;;;;;;28.82;30.23;101825.50;5075779;28;20031;-75
2022/08/12 11:01:05;;;;;;;8.20;4.28;;;;;;;28.76;30.89;101800.50;5075656;28;20468;-78
2022/08/12 11:03:36;;;;;;;11.27;4.05;;;;;;;28.81;29.63;101807.91;5076051;28;20024;-77
2022/08/12 11:06:05;;;;;;;10.13;4.63;;;;;;;28.84;29.96;101812.81;5075839;28;20025;-76
2022/08/12 11:08:32;;;;;;;9.10;3.90;;;;;;;28.99;30.18;101808.25;5075678;28;20017;-76
2022/08/12 11:10:57;;;;;;;8.15;4.32;;;;;;;28.91;28.81;101799.59;5075728;28;20036;-76
2022/08/12 11:13:23;;;;;;;9.35;4.28;;;;;;;28.87;29.26;101799.13;5075636;28;20013;-75
2022/08/12 11:15:48;;;;;;;9.57;4.30;;;;;;;28.92;29.03;101803.91;5075179;28;20381;-77
2022/08/12 11:18:14;;;;;;;8.65;4.13;;;;;;;28.96;29.12;101807.81;5075229;28;20103;-77
2022/08/12 11:20:39;;;;;;;9.38;4.38;;;;;;;28.92;29.08;101794.09;5075609;28;20025;-77
2022/08/12 11:23:04;;;;;;;8.25;4.10;;;;;;;28.95;28.89;101788.38;5075321;28;20407;-75
2022/08/12 11:25:30;;;;;;;7.97;3.90;;;;;;;28.92;29.35;101794.09;5075570;28;20031;-74
2022/08/12 11:27:56;;;;;;;8.88;4.28;;;;;;;28.72;29.00;101780.63;5075380;28;20561;-73
2022/08/12 11:30:21;;;;;;;11.52;4.35;;;;;;;28.69;28.82;101756.25;5056813;28;20048;-77
2022/08/12 11:32:46;;;;;;;10.25;4.38;;;;;;;28.92;29.83;101777.31;5074702;28;20091;-77
2022/08/12 11:35:12;;;;;;;7.55;4.30;;;;;;;28.96;28.30;101773.25;5056769;28;20054;-77
2022/08/12 11:37:39;;;;;;;6.88;4.13;;;;;;;29.10;29.40;101780.28;5075158;28;20029;-76
2022/08/12 11:40:05;;;;;;;11.48;4.50;;;;;;;29.10;29.20;101774.97;5075153;28;20032;-76
2022/08/12 11:42:31;;;;;;;7.32;4.15;;;;;;;29.17;28.55;101789.13;5057337;28;20099;-77
2022/08/12 11:44:56;;;;;;;6.00;4.30;;;;;;;29.18;28.43;101779.31;5074955;28;20444;-77
2022/08/12 11:47:24;;;;;;;10.40;4.50;;;;;;;29.08;28.94;101763.69;5074751;28;20035;-78
2022/08/12 11:49:50;;;;;;;6.05;3.95;;;;;;;29.05;28.38;101756.13;5074927;28;20029;-77
2022/08/12 11:52:16;;;;;;;10.07;4.82;;;;;;;29.19;28.58;101779.09;5074813;28;20024;-78
2022/08/12 11:54:41;;;;;;;10.75;4.70;;;;;;;29.11;28.11;101764.16;5074804;28;20029;-78
2022/08/12 11:57:06;;;;;;;9.25;4.68;;;;;;;29.07;28.48;101759.41;5074938;28;20020;-78
2022/08/12 11:59:32;;;;;;;8.32;4.50;;;;;;;29.00;29.54;101747.91;5074720;28;20042;-79
2022/08/12 12:01:57;;;;;;;8.80;4.40;;;;;;;29.22;28.57;101759.28;5073524;28;20028;-78
2022/08/12 12:04:23;;;;;;;8.60;4.15;;;;;;;29.34;28.56;101758.53;5074681;28;20027;-77
2022/08/12 12:06:48;;;;;;;7.70;4.38;;;;;;;29.38;28.42;101757.09;5074568;28;20027;-77
2022/08/12 12:09:13;;;;;;;9.35;4.70;;;;;;;29.41;28.60;101755.91;5074639;28;20024;-77
2022/08/12 12:11:38;;;;;;;9.82;4.43;;;;;;;29.41;28.79;101746.09;5074471;28;20472;-76
2022/08/12 12:14:04;;;;;;;7.13;4.60;;;;;;;29.49;28.17;101750.41;5074331;28;20025;-77
2022/08/12 12:16:29;;;;;;;8.00;4.70;;;;;;;29.38;28.38;101730.50;5072984;28;20040;-74
2022/08/12 12:18:55;;;;;;;11.30;4.43;;;;;;;29.53;28.50;101743.69;5073967;28;20119;-75
2022/08/12 12:21:20;;;;;;;12.65;4.70;;;;;;;29.61;30.13;101740.03;5056262;28;20105;-76
2022/08/12 12:23:45;;;;;;;9.52;4.18;;;;;;;29.59;28.72;101732.22;5074346;28;20468;-78
2022/08/12 12:26:11;;;;;;;7.28;4.30;;;;;;;29.48;26.70;101727.50;5073168;28;20028;-77
2022/08/12 12:28:40;;;;;;;7.90;4.40;;;;;;;29.58;27.25;101738.56;5073941;28;20035;-76
2022/08/12 12:31:05;;;;;;;8.38;4.47;;;;;;;29.65;27.61;101739.44;5056073;28;20095;-75
2022/08/12 12:33:31;;;;;;;7.07;4.40;;;;;;;29.61;27.16;101724.88;5073739;28;20559;-75
2022/08/12 12:35:56;;;;;;;7.63;4.05;;;;;;;29.65;27.20;101730.63;5074163;28;20105;-77
2022/08/12 12:38:22;;;;;;;9.30;4.55;;;;;;;29.61;27.10;101713.44;5073864;28;20476;-77
2022/08/12 12:40:47;;;;;;;11.10;4.43;;;;;;;29.69;28.40;101721.19;5073939;28;20113;-75
2022/08/12 12:43:14;;;;;;;9.02;4.40;;;;;;;29.78;28.07;101724.50;5055897;28;20120;-76
2022/08/12 12:45:41;;;;;;;10.30;4.90;;;;;;;29.73;27.10;101711.00;5073707;28;20037;-78
2022/08/12 12:48:08;;;;;;;8.50;4.57;;;;;;;29.70;27.52;101723.69;5073677;28;20361;-78
2022/08/12 12:50:42;;;;;;;9.43;4.68;;;;;;;29.68;27.63;101719.56;5073601;28;20023;-77
2022/08/12 12:53:08;;;;;;;9.23;4.25;;;;;;;29.66;26.75;101718.94;5073680;28;20117;-77
2022/08/12 12:55:36;;;;;;;7.70;4.13;;;;;;;29.61;27.82;101708.91;5073716;28;20361;-76
2022/08/12 12:58:04;;;;;;;9.63;4.55;;;;;;;29.64;27.64;101705.03;5073792;28;20028;-77
2022/08/12 13:00:31;;;;;;;8.40;3.97;;;;;;;29.74;27.52;101710.78;5073653;28;20062;-76
2022/08/12 13:02:57;;;;;;;7.65;4.53;;;;;;;29.67;26.93;101708.09;5073247;28;20035;-76
2022/08/12 13:05:28;;;;;;;7.78;4.63;;;;;;;29.78;28.51;101693.38;5073661;28;20082;-77
2022/08/12 13:07:59;;;;;;;8.38;4.80;;;;;;;29.69;27.93;101670.63;5073530;28;20374;-77
2022/08/12 13:10:26;;;;;;;7.07;4.40;;;;;;;29.83;28.39;101690.94;5073427;28;20024;-77
2022/08/12 13:12:52;;;;;;;8.27;4.60;;;;;;;29.83;27.82;101679.47;5073077;28;20119;-77
2022/08/12 13:15:18;;;;;;;9.82;5.07;;;;;;;29.92;27.33;101688.91;5073393;28;20108;-77
2022/08/12 13:17:55;;;;;;;10.40;4.95;;;;;;;29.86;27.97;101682.53;5072803;28;20111;-78